Time;durP1;ratioP1;P1;durP2;ratioP2;P2;SDS_P1;SDS_P2;PMS_P1;PMS_P2;Temp;Humidity;BMP_temperature;BMP_pressure;BME280_temperature;BME280_humidity;BME280_pressure;Samples;Min_cycle;Max_cycle;Signal;HPM_P1;HPM_P2
2022/01/26 00:07:40;;;;;;;10.70;4.47;;;3.20;88.20;;;;;;6333282;22;20090;-77
2022/01/26 00:10:06;;;;;;;10.90;4.38;;;3.20;88.20;;;;;;6306584;22;19983;-77
2022/01/26 00:12:32;;;;;;;12.65;5.32;;;3.20;88.20;;;;;;6305639;22;20129;-77
2022/01/26 00:14:58;;;;;;;12.43;5.00;;;3.10;88.10;;;;;;6305576;22;20039;-78
2022/01/26 00:17:24;;;;;;;12.27;5.38;;;3.10;88.10;;;;;;6332437;22;20027;-78
2022/01/26 00:19:52;;;;;;;9.15;4.10;;;3.20;88.30;;;;;;6325994;22;20006;-77
2022/01/26 00:38:44;;;;;;;10.40;4.00;;;3.20;88.20;;;;;;6307662;22;19992;-77
2022/01/26 00:41:15;;;;;;;9.95;4.45;;;3.10;88.30;;;;;;6280636;22;20007;-77
2022/01/26 00:43:47;;;;;;;10.63;4.35;;;3.10;88.20;;;;;;6302402;22;19995;-77
2022/01/26 00:46:13;;;;;;;12.57;5.53;;;3.10;88.20;;;;;;6300927;22;20050;-76
2022/01/26 00:48:41;;;;;;;12.98;5.93;;;3.10;88.20;;;;;;6329711;22;20003;-77
2022/01/26 00:51:07;;;;;;;16.63;6.38;;;3.00;88.20;;;;;;6302606;22;20431;-76
2022/01/26 00:53:38;;;;;;;14.35;5.75;;;3.00;88.30;;;;;;6276215;22;20025;-76
2022/01/26 00:56:05;;;;;;;14.00;5.70;;;2.90;88.20;;;;;;6276628;22;20021;-77
2022/01/26 00:58:32;;;;;;;13.13;5.20;;;3.00;88.30;;;;;;6301983;22;20030;-77
2022/01/26 01:01:00;;;;;;;14.27;5.70;;;3.00;88.30;;;;;;6303428;22;19999;-76
2022/01/26 01:03:26;;;;;;;9.98;4.70;;;3.00;88.30;;;;;;6331597;22;19995;-77
2022/01/26 01:05:59;;;;;;;13.43;5.25;;;3.00;88.30;;;;;;6331100;22;20014;-77
2022/01/26 01:08:26;;;;;;;13.00;4.70;;;3.00;88.30;;;;;;6305805;22;20007;-76
2022/01/26 01:10:58;;;;;;;10.38;3.97;;;3.00;88.30;;;;;;6304868;22;19995;-78
2022/01/26 01:13:37;;;;;;;11.50;5.03;;;3.10;88.40;;;;;;6330643;22;20583;-77
2022/01/26 01:16:05;;;;;;;9.75;4.53;;;3.00;88.30;;;;;;6301636;22;20007;-76
2022/01/26 01:18:47;;;;;;;11.00;5.25;;;3.00;88.30;;;;;;6302986;22;20067;-76
2022/01/26 01:26:58;;;;;;;10.65;4.30;;;3.00;88.30;;;;;;6284481;22;20011;-77
2022/01/26 01:29:39;;;;;;;11.20;4.25;;;3.00;88.30;;;;;;6297836;22;20007;-77
2022/01/26 01:32:12;;;;;;;;;;;3.00;88.20;;;;;;6309085;22;20011;-77
2022/01/26 01:34:39;;;;;;;8.57;3.42;;;3.00;88.20;;;;;;6307077;22;19903;-77
2022/01/26 01:37:08;;;;;;;7.28;2.92;;;3.00;88.20;;;;;;6333444;22;19996;-78
2022/01/26 01:39:36;;;;;;;8.85;3.55;;;3.00;88.30;;;;;;6306922;22;20029;-78
2022/01/26 01:42:04;;;;;;;9.13;3.83;;;3.00;88.30;;;;;;6307041;22;20051;-77
2022/01/26 01:44:30;;;;;;;9.10;3.60;;;3.00;88.30;;;;;;6331168;22;20030;-78
2022/01/26 01:46:57;;;;;;;9.38;3.70;;;3.00;88.30;;;;;;6300760;22;20019;-78
2022/01/26 01:49:23;;;;;;;9.10;3.78;;;3.00;88.40;;;;;;6275928;22;20004;-78
2022/01/26 01:51:52;;;;;;;9.55;3.83;;;3.00;88.40;;;;;;6300916;22;20008;-77
2022/01/26 01:54:18;;;;;;;9.27;4.00;;;3.00;88.40;;;;;;6328984;22;20010;-77
2022/01/26 01:56:53;;;;;;;10.18;3.75;;;2.90;88.30;;;;;;6282767;22;20011;-77
2022/01/26 01:59:19;;;;;;;8.65;3.20;;;3.10;88.40;;;;;;6335191;22;20011;-77
2022/01/26 02:01:44;;;;;;;9.13;3.60;;;3.00;88.40;;;;;;6307147;22;20047;-77
2022/01/26 02:04:10;;;;;;;9.02;3.50;;;3.00;88.40;;;;;;6308090;22;20031;-77
2022/01/26 02:06:36;;;;;;;8.63;3.50;;;3.00;88.40;;;;;;6335431;22;19991;-77
2022/01/26 02:09:02;;;;;;;10.93;4.18;;;3.00;88.40;;;;;;6308127;22;20007;-77
2022/01/26 02:11:28;;;;;;;7.88;3.20;;;3.00;88.40;;;;;;6334506;22;20003;-77
2022/01/26 02:14:02;;;;;;;8.73;3.63;;;3.00;88.40;;;;;;6280927;22;20002;-77
2022/01/26 02:16:38;;;;;;;7.53;3.15;;;3.00;88.40;;;;;;6283726;22;19987;-77
2022/01/26 02:19:36;;;;;;;8.27;3.25;;;3.00;88.40;;;;;;6280991;22;20035;-78
2022/01/26 02:51:32;;;;;;;8.45;3.78;;;3.00;88.40;;;;;;6307252;22;20022;-77
2022/01/26 02:54:22;;;;;;;8.90;3.38;;;3.10;88.50;;;;;;6308965;22;19994;-77
2022/01/26 02:59:50;;;;;;;7.15;2.97;;;3.10;88.50;;;;;;6308749;22;20019;-79
2022/01/26 03:02:27;;;;;;;9.82;3.70;;;3.10;88.50;;;;;;6333675;22;20478;-79
2022/01/26 03:04:56;;;;;;;6.10;2.58;;;3.10;88.50;;;;;;6306813;22;20011;-78
2022/01/26 03:07:36;;;;;;;9.13;3.47;;;3.20;88.60;;;;;;6306992;22;19996;-78
2022/01/26 03:10:14;;;;;;;10.23;4.18;;;3.10;88.50;;;;;;6310796;22;20003;-78
2022/01/26 03:12:48;;;;;;;7.43;2.90;;;3.10;88.50;;;;;;6283853;22;20027;-78
2022/01/26 03:15:21;;;;;;;6.20;2.53;;;3.10;88.50;;;;;;6284118;22;19995;-78
2022/01/26 03:18:10;;;;;;;8.10;3.33;;;3.10;88.60;;;;;;6305350;22;20004;-78
2022/01/26 03:20:34;;;;;;;8.45;4.20;;;3.10;88.50;;;;;;6306412;22;20024;-78
2022/01/26 03:28:37;;;;;;;8.45;3.25;;;3.10;88.60;;;;;;6330121;22;20027;-78
2022/01/26 03:31:35;;;;;;;6.85;2.80;;;3.00;88.50;;;;;;6303695;22;20035;-78
2022/01/26 03:33:59;;;;;;;8.90;3.42;;;3.10;88.60;;;;;;6305853;22;20059;-78
2022/01/26 03:36:28;;;;;;;9.43;3.28;;;3.00;88.50;;;;;;6333350;22;20071;-75
2022/01/26 03:39:00;;;;;;;9.52;3.70;;;3.20;88.60;;;;;;6306054;22;19979;-77
2022/01/26 03:41:39;;;;;;;9.63;3.90;;;3.10;88.50;;;;;;6307273;22;19999;-77
2022/01/26 03:44:07;;;;;;;9.52;3.58;;;3.10;88.50;;;;;;6282325;22;20016;-78
2022/01/26 03:46:33;;;;;;;7.70;3.15;;;3.20;88.60;;;;;;6299155;22;20008;-77
2022/01/26 03:48:58;;;;;;;10.00;4.13;;;3.10;88.50;;;;;;6272651;22;20135;-77
2022/01/26 03:51:24;;;;;;;11.32;4.55;;;3.10;88.50;;;;;;6301276;22;20096;-77
2022/01/26 03:53:50;;;;;;;8.20;3.40;;;3.10;88.50;;;;;;6281699;22;20003;-78
2022/01/26 03:56:16;;;;;;;11.00;4.22;;;3.10;88.50;;;;;;6333913;22;19991;-78
2022/01/26 03:58:41;;;;;;;10.88;4.35;;;3.10;88.50;;;;;;6281226;22;20019;-77
2022/01/26 04:01:07;;;;;;;9.35;3.03;;;3.10;88.50;;;;;;6333812;22;20008;-78
2022/01/26 04:03:33;;;;;;;6.43;2.88;;;3.20;88.60;;;;;;6333811;22;19999;-77
2022/01/26 04:05:59;;;;;;;8.98;3.40;;;3.10;88.60;;;;;;6306807;22;20010;-78
2022/01/26 04:08:31;;;;;;;10.40;3.75;;;3.10;88.60;;;;;;6279591;22;20023;-78
2022/01/26 04:11:14;;;;;;;7.35;2.70;;;3.10;88.60;;;;;;6333273;22;20018;-80
2022/01/26 04:13:39;;;;;;;8.57;3.30;;;3.00;88.50;;;;;;6310229;22;20011;-78
2022/01/26 04:16:07;;;;;;;5.28;2.10;;;3.20;88.60;;;;;;6305499;22;19983;-79
2022/01/26 04:18:37;;;;;;;5.38;2.28;;;3.20;88.60;;;;;;6330408;22;20038;-78
2022/01/26 04:21:15;;;;;;;5.60;2.45;;;3.20;88.60;;;;;;6278776;22;20034;-78
2022/01/26 04:23:51;;;;;;;5.82;2.45;;;3.20;88.60;;;;;;6255401;22;20382;-78
2022/01/26 04:26:22;;;;;;;6.85;2.55;;;3.20;88.50;;;;;;6256094;22;20015;-78
2022/01/26 04:28:54;;;;;;;6.53;2.87;;;3.20;88.60;;;;;;6254244;22;19998;-78
2022/01/26 04:31:21;;;;;;;8.07;3.22;;;3.30;88.60;;;;;;6280202;22;20015;-78
2022/01/26 04:33:47;;;;;;;9.95;3.45;;;3.20;88.50;;;;;;6305842;22;20014;-78
2022/01/26 04:36:18;;;;;;;6.85;2.45;;;3.30;88.60;;;;;;6278726;22;20014;-78
2022/01/26 04:38:49;;;;;;;7.03;2.67;;;3.30;88.70;;;;;;6279727;22;20887;-78
2022/01/26 04:41:28;;;;;;;7.97;2.78;;;3.30;88.60;;;;;;6306612;22;20011;-78
2022/01/26 04:43:59;;;;;;;8.85;3.55;;;3.30;88.60;;;;;;6255530;22;20018;-78
2022/01/26 04:46:26;;;;;;;9.20;3.35;;;3.30;88.60;;;;;;6279400;22;20055;-78
2022/01/26 04:48:52;;;;;;;8.05;2.97;;;3.30;88.60;;;;;;6276057;22;20019;-78
2022/01/26 04:51:19;;;;;;;10.93;3.75;;;3.30;88.50;;;;;;6306206;22;20015;-78
2022/01/26 04:53:45;;;;;;;8.05;3.40;;;3.40;88.60;;;;;;6305614;22;20003;-78
2022/01/26 04:56:13;;;;;;;6.65;2.58;;;3.30;88.50;;;;;;6305853;22;20007;-78
2022/01/26 04:58:39;;;;;;;7.78;3.25;;;3.30;88.50;;;;;;6305834;22;19995;-78
2022/01/26 05:01:05;;;;;;;7.63;3.40;;;3.30;88.50;;;;;;6305794;22;20000;-78
2022/01/26 05:03:31;;;;;;;8.38;3.25;;;3.30;88.50;;;;;;6252898;22;20014;-78
2022/01/26 05:05:57;;;;;;;7.53;3.47;;;3.30;88.50;;;;;;6253196;22;20339;-78
2022/01/26 05:08:22;;;;;;;8.68;3.40;;;3.30;88.50;;;;;;6253491;22;19999;-78
2022/01/26 05:10:48;;;;;;;9.82;3.50;;;3.30;88.50;;;;;;6306692;22;20011;-78
2022/01/26 05:13:15;;;;;;;9.80;3.75;;;3.30;88.50;;;;;;6278840;22;20322;-78
2022/01/26 05:15:42;;;;;;;9.40;3.72;;;3.30;88.50;;;;;;6279312;22;19996;-78
2022/01/26 05:18:09;;;;;;;9.35;4.13;;;3.30;88.50;;;;;;6276178;22;20327;-78
2022/01/26 05:20:35;;;;;;;9.73;4.35;;;3.30;88.50;;;;;;6253230;22;20564;-78
2022/01/26 05:23:01;;;;;;;11.23;4.68;;;3.30;88.60;;;;;;6253168;22;20027;-78
2022/01/26 05:25:27;;;;;;;10.63;4.10;;;3.40;88.60;;;;;;6278767;22;20061;-78
2022/01/26 05:27:53;;;;;;;11.70;4.50;;;3.40;88.60;;;;;;6305583;22;20021;-78
2022/01/26 05:30:19;;;;;;;12.93;5.22;;;3.40;88.60;;;;;;6252644;22;20097;-78
2022/01/26 05:32:45;;;;;;;11.57;4.72;;;3.30;88.60;;;;;;6305977;22;20475;-78
2022/01/26 05:35:11;;;;;;;14.43;5.50;;;3.30;88.50;;;;;;6278921;22;20003;-78
2022/01/26 05:37:37;;;;;;;12.68;5.13;;;3.30;88.50;;;;;;6278419;22;20015;-78
2022/01/26 05:40:04;;;;;;;14.25;6.40;;;3.30;88.50;;;;;;6276736;22;20016;-78
2022/01/26 05:42:31;;;;;;;15.00;5.95;;;3.30;88.50;;;;;;6252739;22;20340;-78
2022/01/26 05:45:02;;;;;;;14.70;6.13;;;3.30;88.40;;;;;;6278257;22;20339;-77
2022/01/26 05:47:31;;;;;;;;;;;3.30;88.50;;;;;;6279776;22;19999;-76
2022/01/26 05:49:57;;;;;;;11.55;5.00;;;3.30;88.40;;;;;;6305353;22;19899;-76
2022/01/26 05:52:22;;;;;;;13.20;5.53;;;3.50;88.50;;;;;;6252036;22;20085;-76
2022/01/26 05:54:48;;;;;;;12.43;5.15;;;3.30;88.40;;;;;;6252463;22;19999;-76
2022/01/26 05:57:14;;;;;;;14.13;6.00;;;3.30;88.40;;;;;;6252342;22;20078;-77
2022/01/26 05:59:40;;;;;;;14.73;6.13;;;3.30;88.40;;;;;;6277584;22;20427;-76
2022/01/26 06:02:05;;;;;;;11.98;5.13;;;3.30;88.40;;;;;;6277728;22;19999;-75
2022/01/26 06:04:31;;;;;;;15.25;6.50;;;3.30;88.40;;;;;;6305514;22;20007;-75
2022/01/26 06:06:58;;;;;;;13.27;5.28;;;3.30;88.40;;;;;;6253374;22;20504;-78
2022/01/26 06:09:24;;;;;;;15.27;6.32;;;3.30;88.40;;;;;;6280434;22;20011;-78
2022/01/26 06:11:49;;;;;;;14.93;6.72;;;3.30;88.40;;;;;;6277515;22;20109;-77
2022/01/26 06:14:15;;;;;;;17.10;6.38;;;3.30;88.40;;;;;;6249662;22;19996;-77
2022/01/26 06:16:41;;;;;;;15.20;6.50;;;3.20;88.40;;;;;;6277394;22;20016;-78
2022/01/26 06:19:07;;;;;;;15.05;6.45;;;3.30;88.40;;;;;;6276636;22;20374;-78
2022/01/26 06:21:32;;;;;;;14.13;6.47;;;3.30;88.50;;;;;;6275542;22;20016;-78
2022/01/26 06:23:58;;;;;;;14.57;6.15;;;3.20;88.40;;;;;;6304936;22;20007;-77
2022/01/26 06:26:24;;;;;;;15.57;7.07;;;3.30;88.50;;;;;;6276562;22;20024;-77
2022/01/26 06:28:52;;;;;;;16.38;6.97;;;3.20;88.40;;;;;;6305504;22;20007;-78
2022/01/26 06:31:19;;;;;;;15.43;6.50;;;3.30;88.50;;;;;;6278252;22;20027;-78
2022/01/26 06:33:47;;;;;;;15.60;6.28;;;3.20;88.50;;;;;;6305061;22;20435;-77
2022/01/26 06:36:15;;;;;;;14.88;6.53;;;3.30;88.60;;;;;;6252242;22;20012;-79
2022/01/26 06:38:43;;;;;;;17.20;7.38;;;3.20;88.50;;;;;;6277660;22;20026;-77
2022/01/26 06:41:10;;;;;;;18.95;7.90;;;3.20;88.50;;;;;;6278895;22;20003;-79
2022/01/26 06:43:45;;;;;;;16.00;7.00;;;3.10;88.50;;;;;;6252376;22;19999;-78
2022/01/26 06:46:18;;;;;;;17.10;7.80;;;3.20;88.50;;;;;;6295035;22;20007;-80
2022/01/26 06:48:59;;;;;;;15.30;7.50;;;3.20;88.50;;;;;;6295165;22;20011;-79
2022/01/26 06:51:25;;;;;;;;;;;3.30;88.60;;;;;;6295754;22;20027;-76
2022/01/26 06:53:51;;;;;;;19.48;7.88;;;3.20;88.50;;;;;;6278964;22;19899;-78
2022/01/26 06:56:16;;;;;;;16.73;7.82;;;3.10;88.50;;;;;;6263448;22;20003;-77
2022/01/26 06:58:42;;;;;;;18.80;8.48;;;3.20;88.60;;;;;;6290007;22;20323;-78
2022/01/26 07:01:08;;;;;;;20.23;8.43;;;3.10;88.50;;;;;;6255414;22;20030;-77
2022/01/26 07:03:33;;;;;;;21.00;9.02;;;3.10;88.60;;;;;;6255013;22;19999;-76
2022/01/26 07:05:59;;;;;;;21.08;8.10;;;3.00;88.50;;;;;;6257297;22;20000;-75
2022/01/26 07:08:25;;;;;;;20.85;8.63;;;3.20;88.70;;;;;;6286131;22;20443;-76
2022/01/26 07:10:53;;;;;;;21.83;9.02;;;3.10;88.60;;;;;;6276785;22;19991;-75
2022/01/26 07:13:24;;;;;;;24.38;9.60;;;3.10;88.60;;;;;;6329977;22;20078;-75
2022/01/26 07:23:55;;;;;;;21.80;9.80;;;3.10;88.80;;;;;;6284083;22;20025;-78
2022/01/26 07:26:22;;;;;;;26.63;10.95;;;3.10;88.70;;;;;;6279945;22;20018;-77
2022/01/26 07:28:48;;;;;;;24.73;9.98;;;3.10;88.80;;;;;;6279742;22;20042;-77
2022/01/26 07:31:13;;;;;;;22.85;9.63;;;3.10;88.80;;;;;;6307205;22;20003;-77
2022/01/26 07:33:41;;;;;;;20.50;8.35;;;3.00;88.70;;;;;;6252912;22;20004;-77
2022/01/26 07:36:07;;;;;;;17.38;8.13;;;3.10;88.80;;;;;;6281564;22;19995;-79
2022/01/26 07:38:33;;;;;;;19.58;8.05;;;3.10;88.90;;;;;;6279868;22;20442;-76
2022/01/26 07:40:59;;;;;;;18.48;7.32;;;3.10;88.90;;;;;;6306743;22;20007;-78
2022/01/26 07:43:25;;;;;;;17.48;7.25;;;3.10;88.90;;;;;;6253565;22;20083;-75
2022/01/26 07:45:51;;;;;;;17.80;7.05;;;3.10;88.90;;;;;;6279914;22;20009;-75
2022/01/26 07:48:17;;;;;;;19.95;7.93;;;3.10;89.00;;;;;;6255054;22;20453;-78
2022/01/26 07:51:03;;;;;;;16.70;6.97;;;3.10;89.00;;;;;;6254930;22;20420;-76
2022/01/26 07:54:32;;;;;;;19.45;7.00;;;3.00;89.00;;;;;;6282640;22;20011;-77
2022/01/26 07:57:06;;;;;;;16.42;7.05;;;3.10;89.10;;;;;;6184074;23;20021;-78
2022/01/26 07:59:32;;;;;;;19.30;7.72;;;3.10;89.00;;;;;;6176705;23;19993;-78
2022/01/26 08:01:57;;;;;;;17.23;6.65;;;3.10;89.00;;;;;;6181396;23;20125;-77
2022/01/26 08:04:23;;;;;;;18.85;7.18;;;3.10;89.10;;;;;;6205301;23;20005;-77
2022/01/26 08:06:50;;;;;;;17.17;7.32;;;3.00;89.10;;;;;;6171951;23;20361;-78
2022/01/26 08:09:16;;;;;;;18.13;6.72;;;3.10;89.20;;;;;;6160320;23;20458;-80
2022/01/26 08:11:42;;;;;;;19.40;7.80;;;3.20;89.30;;;;;;6170956;23;20044;-79
2022/01/26 08:14:08;;;;;;;16.42;6.30;;;3.10;89.20;;;;;;6170053;23;20045;-80
2022/01/26 08:16:34;;;;;;;18.60;7.50;;;3.10;89.30;;;;;;6189185;23;20531;-78
2022/01/26 08:19:00;;;;;;;19.08;8.30;;;3.10;89.30;;;;;;6166246;23;20084;-78
2022/01/26 08:21:26;;;;;;;18.42;8.02;;;3.10;89.30;;;;;;6190442;23;20017;-79
2022/01/26 08:23:52;;;;;;;22.40;9.23;;;3.20;89.40;;;;;;6185161;23;20009;-80
2022/01/26 08:26:25;;;;;;;20.20;8.25;;;3.10;89.40;;;;;;6165261;23;20009;-80
2022/01/26 08:28:55;;;;;;;18.98;8.50;;;3.10;89.40;;;;;;6213533;23;20005;-80
2022/01/26 08:31:21;;;;;;;21.08;8.48;;;3.10;89.40;;;;;;6189921;23;20016;-80
2022/01/26 08:33:47;;;;;;;18.33;7.20;;;3.10;89.40;;;;;;6229117;22;20037;-80
2022/01/26 08:36:12;;;;;;;17.92;7.57;;;3.10;89.50;;;;;;6316980;22;19999;-81
2022/01/26 08:38:38;;;;;;;18.80;8.15;;;3.10;89.50;;;;;;6290798;22;20004;-81
2022/01/26 08:41:04;;;;;;;16.67;6.63;;;3.20;89.60;;;;;;6265588;22;20466;-80
2022/01/26 08:43:30;;;;;;;17.98;7.15;;;3.20;89.60;;;;;;6285890;22;20427;-80
2022/01/26 08:45:55;;;;;;;17.98;7.30;;;3.20;89.60;;;;;;6263916;22;20036;-81
2022/01/26 08:48:22;;;;;;;16.23;7.80;;;3.20;89.90;;;;;;6257709;22;20099;-83
2022/01/26 08:50:48;;;;;;;18.20;7.40;;;3.30;89.60;;;;;;6280792;22;20016;-80
2022/01/26 08:53:13;;;;;;;15.77;7.10;;;3.20;89.60;;;;;;6279841;22;19999;-79
2022/01/26 08:55:39;;;;;;;21.83;8.88;;;3.10;89.50;;;;;;6307751;22;20005;-80
2022/01/26 08:58:05;;;;;;;22.48;9.40;;;3.40;89.70;;;;;;6306924;22;19996;-80
2022/01/26 09:00:32;;;;;;;25.50;9.15;;;3.20;89.60;;;;;;6279609;22;20007;-80
2022/01/26 09:02:59;;;;;;;25.23;10.73;;;3.30;89.70;;;;;;6279321;22;20019;-80
2022/01/26 09:05:25;;;;;;;23.45;9.52;;;3.20;89.60;;;;;;6283973;22;20003;-80
2022/01/26 09:07:55;;;;;;;23.05;9.38;;;3.30;89.80;;;;;;6281428;22;20004;-80
2022/01/26 09:10:21;;;;;;;21.92;9.80;;;3.30;89.80;;;;;;6282446;22;20003;-81
2022/01/26 09:12:48;;;;;;;22.45;9.88;;;3.30;90.10;;;;;;6255475;22;20003;-81
2022/01/26 09:15:15;;;;;;;24.80;9.50;;;3.30;89.80;;;;;;6312160;22;20443;-80
2022/01/26 09:17:42;;;;;;;21.98;9.40;;;3.30;89.80;;;;;;6256978;22;19995;-80
2022/01/26 09:20:10;;;;;;;20.00;8.68;;;3.40;89.90;;;;;;6314845;22;20061;-80
2022/01/26 09:22:35;;;;;;;20.95;8.38;;;3.30;89.80;;;;;;6284495;22;20486;-80
2022/01/26 09:25:01;;;;;;;19.48;8.57;;;3.40;89.90;;;;;;6290005;22;20002;-81
2022/01/26 09:27:27;;;;;;;18.50;8.23;;;3.30;89.90;;;;;;6287927;22;20003;-80
2022/01/26 09:29:53;;;;;;;16.95;7.22;;;3.40;89.90;;;;;;6264439;22;19996;-79
2022/01/26 09:32:21;;;;;;;18.48;8.35;;;3.40;89.90;;;;;;6290472;22;20010;-81
2022/01/26 09:34:47;;;;;;;17.00;7.78;;;3.50;89.90;;;;;;6290768;22;20002;-80
2022/01/26 09:37:16;;;;;;;17.70;7.65;;;3.50;89.90;;;;;;6324264;22;19996;-79
2022/01/26 09:39:44;;;;;;;18.92;7.85;;;3.50;89.90;;;;;;6286911;22;20004;-79
2022/01/26 09:42:10;;;;;;;18.90;8.20;;;3.50;89.90;;;;;;6261481;22;20000;-78
2022/01/26 09:44:36;;;;;;;17.77;7.43;;;3.50;90.00;;;;;;6317291;22;20059;-80
2022/01/26 09:47:03;;;;;;;18.65;7.68;;;3.50;90.00;;;;;;6314486;22;20068;-79
2022/01/26 09:49:32;;;;;;;18.00;7.60;;;3.50;90.00;;;;;;6288464;22;20011;-79
2022/01/26 09:52:03;;;;;;;21.05;7.95;;;3.60;90.00;;;;;;6314498;22;20329;-81
2022/01/26 09:54:30;;;;;;;15.80;7.00;;;3.50;90.00;;;;;;6316604;22;20054;-79
2022/01/26 09:57:03;;;;;;;22.02;8.82;;;3.50;90.00;;;;;;6312894;22;20458;-79
2022/01/26 09:59:30;;;;;;;17.77;8.02;;;3.60;90.00;;;;;;6312963;22;19998;-79
2022/01/26 10:01:56;;;;;;;20.65;8.70;;;3.60;90.00;;;;;;6312552;22;19999;-80
2022/01/26 10:04:27;;;;;;;17.13;7.07;;;3.70;90.00;;;;;;6286748;22;20323;-79
2022/01/26 10:07:20;;;;;;;20.08;7.78;;;3.60;90.00;;;;;;6289186;22;20025;-80
2022/01/26 10:10:02;;;;;;;19.30;7.68;;;3.70;90.10;;;;;;6259934;22;20004;-80
2022/01/26 10:17:46;;;;;;;17.35;7.43;;;3.70;90.30;;;;;;6284119;22;20010;-81
2022/01/26 10:20:17;;;;;;;16.98;7.63;;;3.70;90.00;;;;;;6287562;22;20003;-81
2022/01/26 10:22:44;;;;;;;18.13;7.75;;;3.80;90.10;;;;;;6259147;22;19999;-80
2022/01/26 10:25:13;;;;;;;16.55;6.75;;;3.70;90.00;;;;;;6284408;22;20025;-81
2022/01/26 10:27:43;;;;;;;18.80;7.60;;;3.70;90.10;;;;;;6284932;22;19999;-81
2022/01/26 10:30:12;;;;;;;15.20;6.50;;;3.80;90.10;;;;;;6314284;22;20026;-81
2022/01/26 10:32:40;;;;;;;17.38;7.07;;;3.80;90.10;;;;;;6287689;22;20011;-80
2022/01/26 10:35:06;;;;;;;17.15;7.18;;;3.80;90.10;;;;;;6282882;22;20063;-79
2022/01/26 10:37:33;;;;;;;17.52;7.75;;;3.80;90.10;;;;;;6279007;22;20002;-80
2022/01/26 10:40:11;;;;;;;15.75;7.13;;;3.80;90.10;;;;;;6279544;22;20037;-80
2022/01/26 10:42:37;;;;;;;15.48;6.57;;;4.00;90.20;;;;;;6253832;22;20000;-79
2022/01/26 10:45:14;;;;;;;17.65;7.47;;;3.90;90.10;;;;;;6263045;22;20442;-80
2022/01/26 10:47:46;;;;;;;15.18;6.95;;;3.90;90.10;;;;;;6263171;22;20328;-80
2022/01/26 10:50:32;;;;;;;14.20;6.30;;;4.00;90.10;;;;;;6283169;22;20036;-80
2022/01/26 10:53:17;;;;;;;12.82;6.00;;;4.00;90.10;;;;;;6283971;22;20038;-80
2022/01/26 10:55:43;;;;;;;13.10;6.07;;;4.00;90.10;;;;;;6260119;22;19995;-80
2022/01/26 10:58:09;;;;;;;13.63;6.03;;;4.10;90.10;;;;;;6293914;22;20003;-81
2022/01/26 11:00:38;;;;;;;14.02;6.25;;;4.10;90.10;;;;;;6293750;22;20004;-81
2022/01/26 11:03:05;;;;;;;12.00;6.05;;;4.20;90.10;;;;;;6311903;22;20427;-81
2022/01/26 11:05:32;;;;;;;13.90;5.80;;;4.00;90.10;;;;;;6257888;22;20069;-80
2022/01/26 11:08:00;;;;;;;13.30;5.50;;;4.10;90.10;;;;;;6253179;22;20034;-80
2022/01/26 11:10:36;;;;;;;15.77;7.00;;;4.10;90.10;;;;;;6278747;22;20017;-80
2022/01/26 11:13:03;;;;;;;13.57;6.40;;;4.10;90.00;;;;;;6306276;22;20007;-79
2022/01/26 11:15:30;;;;;;;16.17;7.53;;;4.10;90.00;;;;;;6253334;22;20010;-80
2022/01/26 11:18:08;;;;;;;13.05;6.45;;;4.20;90.10;;;;;;6253167;22;20000;-79
2022/01/26 11:20:48;;;;;;;14.25;6.43;;;4.20;90.00;;;;;;6253081;22;20004;-80
2022/01/26 11:23:14;;;;;;;18.52;7.43;;;4.20;90.00;;;;;;6252203;22;20008;-79
2022/01/26 11:25:43;;;;;;;18.65;8.30;;;4.20;90.00;;;;;;6278562;22;20078;-79
2022/01/26 11:28:28;;;;;;;15.32;7.15;;;4.20;90.00;;;;;;6250228;22;20029;-80
2022/01/26 11:30:59;;;;;;;15.55;7.43;;;4.20;90.00;;;;;;6250430;22;20038;-80
2022/01/26 11:33:28;;;;;;;17.42;7.60;;;4.20;90.00;;;;;;6253525;22;20382;-80
2022/01/26 11:35:57;;;;;;;14.18;6.80;;;4.20;90.00;;;;;;6305754;22;20096;-80
2022/01/26 11:47:15;;;;;;;13.07;6.07;;;4.30;90.00;;;;;;6306077;22;20011;-80
2022/01/26 11:49:44;;;;;;;12.02;5.82;;;4.30;90.00;;;;;;6276118;22;20027;-79
2022/01/26 11:52:22;;;;;;;13.40;6.15;;;4.40;90.00;;;;;;6306065;22;20033;-79
2022/01/26 11:54:52;;;;;;;13.52;5.82;;;4.40;90.00;;;;;;6279223;22;20026;-80
2022/01/26 11:57:19;;;;;;;12.02;5.72;;;4.40;90.00;;;;;;6253385;22;20346;-81
2022/01/26 12:00:00;;;;;;;10.50;4.60;;;4.40;90.00;;;;;;6280623;22;20006;-80
2022/01/26 12:05:19;;;;;;;10.82;4.50;;;4.50;90.00;;;;;;6286190;22;20007;-80
2022/01/26 12:07:52;;;;;;;9.23;4.13;;;4.40;89.90;;;;;;6254937;22;20007;-80
2022/01/26 12:10:27;;;;;;;11.23;4.55;;;4.60;90.00;;;;;;6252256;22;20427;-80
2022/01/26 12:13:10;;;;;;;9.73;4.28;;;4.60;90.00;;;;;;6280454;22;20034;-80
2022/01/26 12:15:46;;;;;;;9.98;4.80;;;4.60;90.00;;;;;;6275921;22;20361;-80
2022/01/26 12:18:28;;;;;;;11.35;5.05;;;4.70;90.00;;;;;;6255321;22;20004;-80
2022/01/26 12:35:27;;;;;;;9.55;3.95;;;4.80;90.00;;;;;;6263142;22;20035;-79
2022/01/26 12:38:00;;;;;;;10.63;4.82;;;4.80;90.00;;;;;;6281751;22;19995;-77
2022/01/26 12:43:18;;;;;;;13.18;5.60;;;4.90;90.00;;;;;;6282595;22;20096;-79
2022/01/26 12:45:46;;;;;;;13.23;5.78;;;4.80;90.00;;;;;;6276199;22;19996;-78
2022/01/26 12:48:29;;;;;;;11.65;5.20;;;4.80;90.00;;;;;;6278405;22;20007;-80
2022/01/26 12:50:57;;;;;;;12.65;5.10;;;4.90;90.00;;;;;;6276946;22;20018;-78
2022/01/26 12:53:26;;;;;;;11.35;5.10;;;4.90;90.00;;;;;;6306036;22;20006;-79
2022/01/26 12:55:57;;;;;;;10.45;5.35;;;4.90;90.00;;;;;;6279157;22;20419;-77
2022/01/26 12:58:27;;;;;;;12.30;5.28;;;5.00;90.00;;;;;;6278917;22;19999;-79
2022/01/26 13:00:58;;;;;;;14.13;6.72;;;5.10;90.00;;;;;;6281094;22;20027;-79
2022/01/26 13:03:28;;;;;;;12.47;6.37;;;5.00;89.90;;;;;;6276542;22;20008;-76
2022/01/26 13:06:06;;;;;;;13.93;6.38;;;4.90;89.90;;;;;;6278087;22;20237;-77
2022/01/26 13:08:45;;;;;;;12.65;5.57;;;4.90;90.00;;;;;;6254118;22;20033;-79
2022/01/26 13:11:11;;;;;;;10.73;5.15;;;4.90;90.00;;;;;;6278321;22;20016;-79
2022/01/26 13:13:37;;;;;;;12.02;5.35;;;5.00;90.00;;;;;;6253094;22;20446;-78
2022/01/26 13:16:16;;;;;;;11.65;5.85;;;5.00;90.00;;;;;;6278656;22;20048;-79
2022/01/26 13:21:43;;;;;;;11.55;6.05;;;5.00;90.00;;;;;;6280281;22;20018;-76
2022/01/26 13:27:23;;;;;;;10.93;5.28;;;5.10;90.00;;;;;;6282480;22;20007;-78
2022/01/26 13:30:02;;;;;;;11.80;5.35;;;5.00;90.00;;;;;;6246246;22;20544;-77
2022/01/26 13:33:02;;;;;;;12.25;6.70;;;5.10;90.00;;;;;;6249368;22;20015;-78
2022/01/26 13:35:43;;;;;;;13.05;6.00;;;5.10;90.00;;;;;;6250439;22;20034;-78
2022/01/26 13:38:17;;;;;;;13.55;5.97;;;5.00;90.00;;;;;;6250944;22;20004;-77
2022/01/26 13:40:52;;;;;;;11.63;6.00;;;5.10;90.00;;;;;;6250555;22;20428;-77
2022/01/26 13:46:43;;;;;;;16.27;6.90;;;5.10;90.00;;;;;;6213051;22;20485;-77
2022/01/26 13:54:42;;;;;;;13.02;7.03;;;5.10;90.00;;;;;;6271906;22;20351;-77
2022/01/26 13:57:27;;;;;;;14.52;7.45;;;5.00;90.00;;;;;;6250565;22;20004;-79
2022/01/26 13:59:56;;;;;;;13.50;6.07;;;4.90;90.30;;;;;;6232353;22;20004;-77
2022/01/26 14:02:24;;;;;;;14.32;6.65;;;5.00;90.10;;;;;;6278695;22;20007;-78
2022/01/26 14:04:50;;;;;;;12.18;5.88;;;5.00;90.10;;;;;;6279009;22;20003;-77
2022/01/26 14:07:16;;;;;;;12.07;5.72;;;5.00;90.10;;;;;;6279763;22;20006;-78
2022/01/26 14:09:44;;;;;;;11.13;5.85;;;5.00;90.10;;;;;;6252631;22;20007;-78
2022/01/26 14:12:12;;;;;;;12.95;5.75;;;5.00;90.10;;;;;;6305400;22;20423;-76
2022/01/26 14:14:43;;;;;;;13.20;6.45;;;5.00;90.10;;;;;;6305339;22;20057;-75
2022/01/26 14:17:23;;;;;;;12.00;5.70;;;5.10;90.10;;;;;;6305840;22;20011;-75
2022/01/26 14:20:07;;;;;;;12.30;5.72;;;5.00;90.10;;;;;;6305634;22;20004;-78
2022/01/26 14:22:59;;;;;;;13.27;6.78;;;5.00;90.10;;;;;;6256589;22;20006;-79
2022/01/26 14:25:27;;;;;;;14.88;6.53;;;5.00;90.10;;;;;;6279215;22;20368;-78
2022/01/26 14:27:56;;;;;;;12.32;6.70;;;5.00;90.10;;;;;;6279593;22;20427;-78
2022/01/26 14:30:39;;;;;;;12.52;6.43;;;5.00;90.10;;;;;;6278868;22;20074;-78
2022/01/26 14:33:26;;;;;;;12.27;6.15;;;5.00;90.10;;;;;;6281744;22;19999;-76
2022/01/26 14:36:17;;;;;;;13.05;6.40;;;5.00;90.10;;;;;;6279254;22;20478;-77
2022/01/26 15:00:25;;;;;;;9.95;5.20;;;5.00;90.10;;;;;;6281041;22;20062;-78
2022/01/26 15:12:07;;;;;;;11.38;4.72;;;5.20;90.10;;;;;;6281222;22;20019;-77
2022/01/26 15:35:20;;;;;;;10.38;5.38;;;5.10;90.20;;;;;;6306264;22;20478;-78
2022/01/26 15:40:43;;;;;;;11.80;4.93;;;5.10;90.20;;;;;;6306253;22;20003;-78
2022/01/26 15:59:24;;;;;;;11.15;5.72;;;5.00;90.10;;;;;;6282015;22;20043;-77
2022/01/26 16:07:14;;;;;;;13.40;6.38;;;5.10;90.20;;;;;;6305779;22;20026;-75
2022/01/26 16:19:13;;;;;;;12.32;5.80;;;5.00;90.20;;;;;;6283244;22;20007;-76
2022/01/26 16:37:39;;;;;;;12.20;5.60;;;5.10;90.30;;;;;;6305973;22;20327;-78
2022/01/26 16:44:21;;;;;;;11.38;5.40;;;5.00;90.20;;;;;;6305497;22;20334;-78
2022/01/26 16:53:52;;;;;;;12.68;6.15;;;5.00;90.30;;;;;;6300668;22;20061;-77
2022/01/26 17:02:30;;;;;;;12.05;5.72;;;4.90;90.30;;;;;;6282759;22;20008;-77
2022/01/26 17:13:06;;;;;;;11.73;4.45;;;4.90;90.30;;;;;;6306162;22;19911;-78
2022/01/26 17:26:53;;;;;;;13.27;6.47;;;4.80;90.30;;;;;;6306086;22;20007;-77